Time;durP1;ratioP1;P1;durP2;ratioP2;P2;SDS_P1;SDS_P2;PMS_P1;PMS_P2;Temp;Humidity;BMP_temperature;BMP_pressure;BME280_temperature;BME280_humidity;BME280_pressure;Samples;Min_cycle;Max_cycle;Signal;HPM_P1;HPM_P2
2022/03/04 00:00:35;;;;;;;1.10;0.50;;;;;;;7.31;100.00;98569.90;1638967;87;20960;-60
2022/03/04 00:03:03;;;;;;;0.82;0.30;;;;;;;7.20;100.00;98575.23;1660812;83;21023;-73
2022/03/04 00:05:30;;;;;;;1.07;0.50;;;;;;;7.24;100.00;98571.73;1679108;85;22359;-77
2022/03/04 00:07:57;;;;;;;1.50;0.50;;;;;;;7.25;100.00;98576.70;1658524;86;22189;-61
2022/03/04 00:10:24;;;;;;;1.02;0.40;;;;;;;7.11;100.00;98582.89;1679073;85;21497;-58
2022/03/04 00:12:53;;;;;;;1.52;0.80;;;;;;;7.18;100.00;98582.39;1676796;85;21122;-77
2022/03/04 00:15:21;;;;;;;1.55;0.70;;;;;;;7.09;100.00;98584.91;1665488;84;21105;-60
2022/03/04 00:17:48;;;;;;;1.37;0.50;;;;;;;7.02;100.00;98591.39;1678091;84;21107;-63
2022/03/04 00:20:15;;;;;;;0.80;0.40;;;;;;;7.13;100.00;98590.48;1678920;84;21122;-61
2022/03/04 00:22:43;;;;;;;1.00;0.42;;;;;;;7.04;100.00;98582.11;1678018;85;21928;-68
2022/03/04 00:25:10;;;;;;;0.98;0.60;;;;;;;7.11;100.00;98579.02;1679241;85;21134;-62
2022/03/04 00:27:38;;;;;;;1.35;0.70;;;;;;;7.37;100.00;98582.56;1677988;85;20996;-60
2022/03/04 00:30:06;;;;;;;1.00;0.50;;;;;;;7.63;100.00;98577.30;1680003;85;21204;-59
2022/03/04 00:32:33;;;;;;;1.25;0.62;;;;;;;7.58;100.00;98577.60;1679441;85;21046;-69
2022/03/04 00:35:00;;;;;;;1.87;0.68;;;;;;;7.66;100.00;98579.48;1650970;86;21165;-60
2022/03/04 00:37:27;;;;;;;1.60;0.70;;;;;;;7.76;100.00;98579.83;1678044;85;21004;-59
2022/03/04 00:39:54;;;;;;;1.92;0.90;;;;;;;7.74;100.00;98571.98;1666558;85;21007;-60
2022/03/04 00:42:21;;;;;;;1.50;0.70;;;;;;;7.77;100.00;98584.55;1649808;86;21296;-59
2022/03/04 00:44:48;;;;;;;1.82;0.93;;;;;;;7.82;100.00;98591.19;1675584;85;21016;-59
2022/03/04 00:47:16;;;;;;;1.20;0.60;;;;;;;7.74;100.00;98590.13;1648163;86;21598;-60
2022/03/04 00:49:43;;;;;;;2.33;0.88;;;;;;;7.80;100.00;98584.11;1676181;85;21658;-59
2022/03/04 00:52:10;;;;;;;2.65;0.85;;;;;;;7.85;100.00;98584.81;1649426;86;21078;-60
2022/03/04 00:54:37;;;;;;;1.90;0.90;;;;;;;7.90;100.00;98581.88;1676016;85;22248;-69
2022/03/04 00:57:04;;;;;;;1.35;0.70;;;;;;;7.91;100.00;98588.65;1668528;85;21043;-59
2022/03/04 00:59:31;;;;;;;2.00;1.02;;;;;;;7.99;100.00;98578.06;1677309;85;21008;-61
2022/03/04 01:01:58;;;;;;;3.40;2.20;;;;;;;8.01;100.00;98589.02;1676375;85;21161;-65
2022/03/04 01:04:25;;;;;;;5.65;3.92;;;;;;;8.07;100.00;98584.81;1660849;84;21503;-61
2022/03/04 01:06:53;;;;;;;5.75;4.12;;;;;;;7.98;100.00;98589.42;1648481;85;21535;-60
2022/03/04 01:09:20;;;;;;;6.03;4.33;;;;;;;7.97;100.00;98590.43;1650686;86;21260;-59
2022/03/04 01:11:47;;;;;;;5.58;4.72;;;;;;;8.00;100.00;98582.74;1637173;86;20986;-61
2022/03/04 01:14:15;;;;;;;6.08;5.05;;;;;;;8.05;100.00;98584.20;1649993;86;20991;-71
2022/03/04 01:16:42;;;;;;;7.87;5.25;;;;;;;8.07;100.00;98594.37;1649100;86;22263;-63
2022/03/04 01:19:09;;;;;;;5.75;3.90;;;;;;;8.26;100.00;98592.98;1650327;86;21135;-59
2022/03/04 01:21:38;;;;;;;6.47;4.78;;;;;;;8.26;100.00;98585.70;1649629;86;22209;-60
2022/03/04 01:24:06;;;;;;;8.35;6.15;;;;;;;7.92;100.00;98591.56;1630772;86;21039;-64
2022/03/04 01:26:33;;;;;;;12.18;7.92;;;;;;;8.20;100.00;98596.41;1639054;87;21086;-59
2022/03/04 01:29:00;;;;;;;9.25;6.78;;;;;;;8.21;100.00;98596.69;1624358;88;21059;-61
2022/03/04 01:31:27;;;;;;;11.73;7.35;;;;;;;8.37;100.00;98595.45;1653617;85;21556;-59
2022/03/04 01:33:54;;;;;;;11.63;7.17;;;;;;;7.95;100.00;98593.72;1651511;86;21002;-60
2022/03/04 01:36:22;;;;;;;8.25;4.97;;;;;;;7.90;100.00;98596.66;1652680;86;21075;-75
2022/03/04 01:38:49;;;;;;;8.70;5.95;;;;;;;7.87;100.00;98590.06;1652698;86;21097;-65
2022/03/04 01:41:16;;;;;;;7.55;4.92;;;;;;;7.86;100.00;98586.39;1651891;86;20956;-61
2022/03/04 01:43:44;;;;;;;6.25;3.70;;;;;;;8.07;100.00;98590.47;1652589;86;21099;-59
2022/03/04 01:46:16;;;;;;;7.90;4.78;;;;;;;7.98;100.00;98585.52;1652618;86;21022;-70
2022/03/04 01:48:45;;;;;;;7.20;3.85;;;;;;;8.07;100.00;98592.59;1652983;86;21536;-59
2022/03/04 01:51:12;;;;;;;4.97;3.20;;;;;;;8.12;100.00;98586.27;1651692;86;20960;-59
2022/03/04 01:53:40;;;;;;;4.45;2.70;;;;;;;8.05;100.00;98585.00;1652834;85;20995;-59
2022/03/04 01:56:07;;;;;;;5.05;3.12;;;;;;;8.03;100.00;98576.64;1651037;86;21097;-66
2022/03/04 01:58:34;;;;;;;5.15;2.80;;;;;;;8.02;100.00;98588.50;1653161;85;20979;-74
2022/03/04 02:01:01;;;;;;;4.55;2.47;;;;;;;8.05;100.00;98592.78;1639073;87;21481;-58
2022/03/04 02:03:28;;;;;;;3.58;2.52;;;;;;;8.16;100.00;98590.03;1652134;85;21007;-59
2022/03/04 02:05:55;;;;;;;3.15;1.70;;;;;;;8.17;100.00;98585.64;1676207;85;21626;-60
2022/03/04 02:08:22;;;;;;;2.87;1.57;;;;;;;8.17;100.00;98590.83;1691396;83;22334;-73
2022/03/04 02:10:50;;;;;;;2.25;1.20;;;;;;;7.99;100.00;98591.03;1681410;84;22205;-59
2022/03/04 02:13:17;;;;;;;1.87;0.80;;;;;;;8.09;100.00;98599.66;1681857;84;21516;-59
2022/03/04 02:15:44;;;;;;;1.27;0.40;;;;;;;8.08;100.00;98602.47;1681713;84;21035;-61
2022/03/04 02:18:13;;;;;;;1.17;0.62;;;;;;;8.15;100.00;98586.36;1682241;84;21003;-59
2022/03/04 02:20:45;;;;;;;2.15;0.80;;;;;;;8.37;100.00;98579.88;1680797;84;21587;-59
2022/03/04 02:23:12;;;;;;;1.72;0.80;;;;;;;8.54;100.00;98591.84;1681945;84;21553;-62
2022/03/04 02:25:49;;;;;;;2.22;0.95;;;;;;;8.34;100.00;98601.53;1680664;84;21054;-61
2022/03/04 02:28:16;;;;;;;1.95;1.00;;;;;;;8.46;100.00;98595.48;1681418;84;20915;-59
2022/03/04 02:30:43;;;;;;;1.82;0.78;;;;;;;7.63;100.00;98603.73;1681520;84;21112;-59
2022/03/04 02:33:11;;;;;;;1.50;0.80;;;;;;;8.06;100.00;98600.06;1682169;84;22450;-59
2022/03/04 02:35:38;;;;;;;1.32;0.60;;;;;;;8.21;100.00;98597.98;1681809;84;20996;-59
2022/03/04 02:38:06;;;;;;;0.75;0.40;;;;;;;8.20;100.00;98593.80;1682307;83;20967;-59
2022/03/04 02:40:33;;;;;;;1.25;0.55;;;;;;;8.23;100.00;98595.99;1691011;83;21176;-69
2022/03/04 02:43:00;;;;;;;1.12;0.55;;;;;;;8.27;100.00;98598.97;1664035;84;21069;-58
2022/03/04 02:45:26;;;;;;;1.00;0.65;;;;;;;8.27;100.00;98591.18;1676622;85;21628;-61
2022/03/04 02:47:54;;;;;;;0.78;0.50;;;;;;;8.39;100.00;98575.77;1678970;84;21015;-60
2022/03/04 02:50:22;;;;;;;1.12;0.50;;;;;;;8.10;100.00;98575.79;1681979;84;21105;-58
2022/03/04 02:52:49;;;;;;;1.12;0.40;;;;;;;8.54;100.00;98568.47;1681879;84;20962;-66
2022/03/04 02:55:16;;;;;;;1.30;0.60;;;;;;;8.70;100.00;98567.14;1681383;84;21113;-58
2022/03/04 02:57:46;;;;;;;1.45;0.50;;;;;;;8.50;100.00;98565.48;1682655;84;21628;-58
2022/03/04 03:00:14;;;;;;;1.60;0.82;;;;;;;8.36;100.00;98567.05;1682257;84;20995;-61
2022/03/04 03:02:41;;;;;;;1.10;0.60;;;;;;;8.70;100.00;98574.42;1681990;85;21073;-62
2022/03/04 03:05:09;;;;;;;1.80;0.50;;;;;;;8.85;100.00;98581.91;1677967;84;21003;-57
2022/03/04 03:07:37;;;;;;;0.75;0.42;;;;;;;8.81;100.00;98586.45;1676028;85;21011;-61
2022/03/04 03:10:05;;;;;;;1.70;0.82;;;;;;;8.76;100.00;98590.48;1669589;85;21198;-59
2022/03/04 03:12:32;;;;;;;1.15;0.60;;;;;;;8.88;100.00;98604.08;1676081;85;21065;-76
2022/03/04 03:15:00;;;;;;;1.42;0.50;;;;;;;8.78;100.00;98609.73;1675559;85;21074;-59
2022/03/04 03:17:27;;;;;;;1.17;0.62;;;;;;;8.82;100.00;98615.30;1676351;85;21070;-59
2022/03/04 03:19:54;;;;;;;0.88;0.45;;;;;;;8.73;100.00;98621.27;1675136;85;21093;-74
2022/03/04 03:22:21;;;;;;;1.22;0.62;;;;;;;9.02;100.00;98617.27;1676674;85;21545;-59
2022/03/04 03:24:48;;;;;;;1.25;0.42;;;;;;;8.95;100.00;98619.12;1672291;85;21002;-59
2022/03/04 03:27:15;;;;;;;1.00;0.50;;;;;;;9.09;100.00;98622.38;1676500;85;21078;-59
2022/03/04 03:29:42;;;;;;;1.30;0.50;;;;;;;9.17;100.00;98624.73;1675548;85;21022;-67
2022/03/04 03:32:10;;;;;;;1.30;0.60;;;;;;;8.23;100.00;98631.03;1676684;85;21284;-60
2022/03/04 03:34:38;;;;;;;1.80;0.68;;;;;;;8.72;100.00;98627.48;1673026;85;21135;-61
2022/03/04 03:37:05;;;;;;;1.80;1.00;;;;;;;8.73;100.00;98625.17;1675981;85;20983;-59
2022/03/04 03:39:32;;;;;;;0.93;0.42;;;;;;;8.75;100.00;98623.14;1673659;85;21114;-73
2022/03/04 03:41:59;;;;;;;1.90;0.70;;;;;;;8.67;100.00;98620.80;1675754;85;21120;-59
2022/03/04 03:44:26;;;;;;;1.07;0.53;;;;;;;8.63;100.00;98622.23;1676492;85;21071;-59
2022/03/04 03:46:53;;;;;;;1.20;0.40;;;;;;;8.67;100.00;98614.31;1674810;85;21447;-59
2022/03/04 03:49:20;;;;;;;0.90;0.40;;;;;;;8.62;100.00;98612.86;1676207;85;21522;-59
2022/03/04 03:51:47;;;;;;;1.45;0.60;;;;;;;8.65;100.00;98605.95;1675443;85;21066;-60
2022/03/04 03:54:14;;;;;;;1.05;0.40;;;;;;;8.52;100.00;98606.34;1675647;85;21122;-61
2022/03/04 03:56:41;;;;;;;0.95;0.50;;;;;;;8.28;100.00;98607.05;1675962;85;21077;-70
2022/03/04 03:59:08;;;;;;;1.57;0.75;;;;;;;8.41;100.00;98605.71;1675850;85;21537;-59
2022/03/04 04:01:36;;;;;;;1.25;0.53;;;;;;;8.28;100.00;98605.23;1708116;79;21003;-73
2022/03/04 04:04:03;;;;;;;1.40;0.55;;;;;;;8.60;100.00;98608.36;1716082;81;21500;-59
2022/03/04 04:06:30;;;;;;;1.60;0.80;;;;;;;8.53;100.00;98622.71;1726881;81;21065;-60
2022/03/04 04:08:58;;;;;;;1.05;0.50;;;;;;;8.52;100.00;98623.22;1726279;81;21086;-59
2022/03/04 04:11:25;;;;;;;1.40;0.75;;;;;;;8.53;100.00;98624.02;1728850;81;22406;-59
2022/03/04 04:13:52;;;;;;;1.00;0.60;;;;;;;8.44;100.00;98623.45;1729504;81;21554;-72
2022/03/04 04:16:19;;;;;;;1.55;0.80;;;;;;;8.49;100.00;98622.33;1728876;81;21029;-59
2022/03/04 04:18:46;;;;;;;2.25;0.98;;;;;;;8.34;100.00;98623.59;1730588;81;21078;-65
2022/03/04 04:21:13;;;;;;;2.37;1.47;;;;;;;8.35;100.00;98635.57;1726440;81;21015;-60
2022/03/04 04:23:40;;;;;;;2.70;1.80;;;;;;;8.37;100.00;98636.99;1725048;81;21134;-69
2022/03/04 04:26:08;;;;;;;2.10;1.17;;;;;;;8.56;100.00;98637.06;1721727;81;21504;-60
2022/03/04 04:28:36;;;;;;;2.17;1.10;;;;;;;8.46;100.00;98639.63;1723985;81;21119;-60
2022/03/04 04:31:03;;;;;;;2.40;1.45;;;;;;;8.59;100.00;98634.05;1714965;81;21006;-71
2022/03/04 04:33:31;;;;;;;2.60;1.42;;;;;;;8.57;100.00;98639.47;1724406;81;21097;-60
2022/03/04 04:35:58;;;;;;;2.85;1.55;;;;;;;8.47;100.00;98641.72;1718797;81;22419;-61
2022/03/04 04:38:25;;;;;;;2.27;1.57;;;;;;;8.63;100.00;98644.31;1726419;81;22224;-61
2022/03/04 04:40:53;;;;;;;3.12;1.40;;;;;;;8.66;100.00;98642.09;1719704;81;21053;-60
2022/03/04 04:43:21;;;;;;;2.55;1.52;;;;;;;8.53;100.00;98636.48;1721837;83;21619;-61
2022/03/04 04:45:48;;;;;;;2.87;1.82;;;;;;;8.29;100.00;98648.86;1720660;81;22146;-71
2022/03/04 04:48:16;;;;;;;3.62;1.82;;;;;;;8.24;100.00;98636.52;1718415;81;21129;-60
2022/03/04 04:50:43;;;;;;;3.50;2.22;;;;;;;8.28;100.00;98641.58;1728611;81;21045;-60
2022/03/04 04:53:10;;;;;;;3.15;2.00;;;;;;;8.32;100.00;98642.47;1728700;81;20974;-71
2022/03/04 04:55:37;;;;;;;5.58;2.72;;;;;;;8.41;100.00;98636.05;1728104;81;20935;-60
2022/03/04 04:58:05;;;;;;;5.40;2.95;;;;;;;8.41;100.00;98647.25;1717808;81;21033;-71
2022/03/04 05:00:32;;;;;;;5.03;3.10;;;;;;;8.45;100.00;98648.43;1722102;81;21552;-61
2022/03/04 05:02:59;;;;;;;5.12;3.02;;;;;;;8.37;100.00;98660.36;1718586;80;21054;-61
2022/03/04 05:05:26;;;;;;;5.62;3.60;;;;;;;8.41;100.00;98661.53;1701333;81;21517;-70
2022/03/04 05:07:53;;;;;;;6.30;3.35;;;;;;;8.01;100.00;98667.36;1717824;81;21095;-66
2022/03/04 05:10:21;;;;;;;4.40;3.05;;;;;;;8.38;100.00;98676.22;1714015;83;21073;-61
2022/03/04 05:12:48;;;;;;;3.40;2.20;;;;;;;8.35;100.00;98677.91;1720412;81;21593;-61
2022/03/04 05:15:15;;;;;;;2.95;1.80;;;;;;;8.55;100.00;98684.31;1719567;83;21069;-61
2022/03/04 05:17:44;;;;;;;3.55;2.37;;;;;;;8.57;100.00;98694.01;1717858;81;20958;-63
2022/03/04 05:20:11;;;;;;;3.30;2.20;;;;;;;8.73;100.00;98688.81;1721514;81;21315;-65
2022/03/04 05:22:38;;;;;;;4.17;2.77;;;;;;;8.81;100.00;98684.66;1716734;81;21527;-62
2022/03/04 05:25:07;;;;;;;3.85;2.55;;;;;;;8.78;100.00;98685.08;1714802;81;22312;-62
2022/03/04 05:27:35;;;;;;;4.47;3.15;;;;;;;8.76;100.00;98680.61;1721345;81;20999;-62
2022/03/04 05:30:02;;;;;;;3.92;2.75;;;;;;;8.77;100.00;98689.48;1718937;81;21137;-73
2022/03/04 05:32:29;;;;;;;3.98;2.50;;;;;;;8.74;100.00;98704.19;1723065;81;22357;-60
2022/03/04 05:34:57;;;;;;;3.45;2.17;;;;;;;9.00;100.00;98699.32;1727477;81;20995;-61
2022/03/04 05:37:24;;;;;;;3.92;2.72;;;;;;;9.04;100.00;98700.20;1729242;81;21636;-60
2022/03/04 05:39:52;;;;;;;3.95;2.58;;;;;;;8.85;100.00;98704.02;1728902;81;20974;-61
2022/03/04 05:42:19;;;;;;;3.87;2.60;;;;;;;9.05;100.00;98704.39;1722461;83;21043;-65
2022/03/04 05:44:46;;;;;;;3.27;2.05;;;;;;;9.01;100.00;98698.81;1724441;81;21096;-62
2022/03/04 05:47:13;;;;;;;3.15;2.20;;;;;;;9.08;100.00;98696.17;1717029;81;21069;-62
2022/03/04 05:49:41;;;;;;;3.00;1.95;;;;;;;8.97;100.00;98707.53;1716586;81;21073;-63
2022/03/04 05:52:09;;;;;;;3.10;2.00;;;;;;;8.93;100.00;98706.36;1727013;81;20966;-73
2022/03/04 05:54:36;;;;;;;3.17;2.15;;;;;;;8.80;100.00;98718.16;1717301;81;21101;-64
2022/03/04 05:57:06;;;;;;;3.58;2.37;;;;;;;8.96;100.00;98714.25;1711205;81;44566;-67
2022/03/04 05:59:33;;;;;;;3.05;2.15;;;;;;;8.84;100.00;98720.63;1715440;81;21069;-64
2022/03/04 06:02:00;;;;;;;3.17;1.98;;;;;;;8.96;100.00;98713.75;1728640;80;21523;-66
2022/03/04 06:04:27;;;;;;;3.92;2.50;;;;;;;9.04;100.00;98714.50;1739048;80;21064;-63
2022/03/04 06:06:54;;;;;;;2.90;1.72;;;;;;;9.06;100.00;98712.50;1736388;80;20985;-61
2022/03/04 06:09:27;;;;;;;3.08;2.00;;;;;;;9.12;100.00;98703.84;1742898;80;21130;-62
2022/03/04 06:11:50;;;;;;;4.28;1.82;;;;;;;9.15;100.00;98706.81;1742478;80;21116;-62
2022/03/04 06:14:18;;;;;;;3.27;2.20;;;;;;;9.32;100.00;98698.00;1730315;80;21165;-73
2022/03/04 06:16:45;;;;;;;3.87;2.40;;;;;;;9.34;100.00;98700.38;1742755;80;21531;-63
2022/03/04 06:19:12;;;;;;;3.40;2.40;;;;;;;9.34;100.00;98702.47;1735158;80;21027;-61
2022/03/04 06:21:40;;;;;;;3.87;2.62;;;;;;;9.51;100.00;98701.44;1743660;80;21417;-62
2022/03/04 06:24:07;;;;;;;4.37;2.33;;;;;;;8.96;100.00;98708.55;1737774;80;21001;-61
2022/03/04 06:26:35;;;;;;;3.45;2.20;;;;;;;9.44;100.00;98701.49;1739388;80;21136;-64
2022/03/04 06:29:02;;;;;;;3.95;2.80;;;;;;;8.88;100.00;98698.41;1740374;80;21045;-65
2022/03/04 06:31:30;;;;;;;3.95;2.62;;;;;;;9.25;100.00;98699.86;1736127;80;21073;-66
2022/03/04 06:33:57;;;;;;;4.33;2.62;;;;;;;9.35;100.00;98699.36;1737209;80;21053;-73
2022/03/04 06:36:24;;;;;;;4.25;2.92;;;;;;;9.06;100.00;98698.20;1741335;80;21055;-76
2022/03/04 06:38:51;;;;;;;4.10;2.60;;;;;;;8.87;100.00;98699.94;1741225;80;21078;-63
2022/03/04 06:41:19;;;;;;;4.65;3.02;;;;;;;8.95;100.00;98709.56;1736897;80;21403;-63
2022/03/04 06:43:47;;;;;;;5.00;3.00;;;;;;;9.06;100.00;98709.91;1736527;80;20918;-62
2022/03/04 06:46:16;;;;;;;4.60;3.15;;;;;;;9.33;100.00;98711.80;1736058;80;21045;-64
2022/03/04 06:48:43;;;;;;;4.67;3.40;;;;;;;9.38;100.00;98710.13;1743518;80;21037;-76
2022/03/04 06:51:10;;;;;;;4.90;3.50;;;;;;;9.12;100.00;98708.53;1728997;80;21209;-63
2022/03/04 06:53:37;;;;;;;5.20;3.20;;;;;;;9.36;100.00;98712.17;1744110;80;21062;-61
2022/03/04 06:56:04;;;;;;;4.75;3.20;;;;;;;9.28;100.00;98720.23;1730552;80;20990;-76
2022/03/04 06:58:32;;;;;;;5.40;4.03;;;;;;;9.48;100.00;98713.05;1738530;80;20953;-66
2022/03/04 07:00:59;;;;;;;5.83;3.75;;;;;;;9.36;100.00;98720.48;1732998;80;21040;-75
2022/03/04 07:03:26;;;;;;;5.30;3.80;;;;;;;9.38;100.00;98721.05;1736672;80;21274;-61
2022/03/04 07:05:54;;;;;;;7.05;4.42;;;;;;;9.26;100.00;98730.05;1736624;80;21555;-61
2022/03/04 07:08:21;;;;;;;6.17;4.40;;;;;;;9.31;100.00;98722.90;1735586;80;21046;-73
2022/03/04 07:10:50;;;;;;;6.55;4.67;;;;;;;9.24;100.00;98729.44;1735513;80;20965;-62
2022/03/04 07:13:22;;;;;;;6.47;4.60;;;;;;;9.57;100.00;98721.37;1735194;80;21084;-61
2022/03/04 07:15:49;;;;;;;6.03;4.58;;;;;;;9.32;100.00;98733.11;1737030;80;21512;-62
2022/03/04 07:18:16;;;;;;;6.25;4.78;;;;;;;9.61;100.00;98740.75;1743223;80;21619;-62
2022/03/04 07:20:45;;;;;;;6.30;4.85;;;;;;;9.66;100.00;98740.92;1737568;80;21477;-66
2022/03/04 07:23:14;;;;;;;5.60;4.62;;;;;;;9.78;100.00;98742.83;1736120;80;20942;-62
2022/03/04 07:25:41;;;;;;;5.42;4.25;;;;;;;9.69;100.00;98742.28;1733238;80;21062;-63
2022/03/04 07:28:08;;;;;;;6.50;5.10;;;;;;;9.83;100.00;98760.67;1733949;80;22101;-62
2022/03/04 07:30:35;;;;;;;6.50;4.60;;;;;;;9.98;100.00;98755.12;1735282;80;21544;-62
2022/03/04 07:33:03;;;;;;;8.90;4.90;;;;;;;9.79;100.00;98760.81;1733605;80;21104;-63
2022/03/04 07:35:30;;;;;;;6.10;4.53;;;;;;;9.63;100.00;98772.56;1742372;80;20915;-61
2022/03/04 07:37:59;;;;;;;6.15;4.60;;;;;;;9.84;100.00;98764.86;1732090;80;22347;-64
2022/03/04 07:40:26;;;;;;;5.80;4.70;;;;;;;9.94;99.54;98770.38;1742742;80;21052;-61
2022/03/04 07:42:54;;;;;;;6.53;4.97;;;;;;;9.35;100.00;98775.56;1738394;80;21011;-66
2022/03/04 07:45:21;;;;;;;6.65;4.97;;;;;;;9.20;100.00;98784.17;1742230;80;21029;-64
2022/03/04 07:47:49;;;;;;;6.97;5.47;;;;;;;9.04;100.00;98780.78;1737328;80;21108;-65
2022/03/04 07:50:17;;;;;;;6.37;5.00;;;;;;;8.97;100.00;98789.40;1743126;80;20979;-63
2022/03/04 07:52:45;;;;;;;7.67;5.75;;;;;;;9.00;100.00;98792.89;1738198;80;21161;-67
2022/03/04 07:55:14;;;;;;;6.37;5.00;;;;;;;9.01;100.00;98790.58;1733865;80;21634;-66
2022/03/04 07:57:42;;;;;;;6.12;4.62;;;;;;;9.35;100.00;98796.37;1738282;80;21029;-66
2022/03/04 08:00:12;;;;;;;7.85;6.30;;;;;;;9.36;100.00;98796.69;1747080;80;21465;-64
2022/03/04 08:02:40;;;;;;;7.08;5.65;;;;;;;9.44;100.00;98795.13;1730861;80;21042;-73
2022/03/04 08:05:08;;;;;;;6.87;5.00;;;;;;;9.33;100.00;98798.40;1714953;81;21295;-63
2022/03/04 08:07:36;;;;;;;8.63;5.60;;;;;;;9.44;100.00;98795.63;1718370;81;21559;-64
2022/03/04 08:10:08;;;;;;;8.33;5.87;;;;;;;9.46;100.00;98804.80;1715512;81;21399;-63
2022/03/04 08:12:35;;;;;;;7.60;5.70;;;;;;;9.45;100.00;98811.02;1710787;81;21559;-70
2022/03/04 08:15:04;;;;;;;7.28;5.58;;;;;;;9.57;100.00;98809.83;1728608;81;21013;-61
2022/03/04 08:17:33;;;;;;;7.65;5.50;;;;;;;9.72;100.00;98808.21;1718441;81;21085;-62
2022/03/04 08:20:04;;;;;;;8.13;6.15;;;;;;;9.36;100.00;98814.89;1711640;81;21630;-65
2022/03/04 08:22:31;;;;;;;9.13;6.40;;;;;;;9.39;100.00;98817.55;1711812;81;20978;-65
2022/03/04 08:24:58;;;;;;;8.60;6.17;;;;;;;9.23;100.00;98822.25;1721327;81;21093;-61
2022/03/04 08:27:27;;;;;;;7.50;5.87;;;;;;;9.34;100.00;98820.79;1723015;81;21066;-72
2022/03/04 08:29:56;;;;;;;7.83;6.33;;;;;;;9.37;100.00;98827.38;1726610;81;21547;-70
2022/03/04 08:32:24;;;;;;;8.35;6.08;;;;;;;9.58;100.00;98829.62;1733682;81;21089;-62
2022/03/04 08:34:51;;;;;;;7.40;5.75;;;;;;;9.49;100.00;98829.09;1726711;81;21560;-62
2022/03/04 08:37:19;;;;;;;6.75;4.83;;;;;;;9.22;100.00;98825.86;1717384;81;21032;-63
2022/03/04 08:39:47;;;;;;;8.53;6.00;;;;;;;9.46;100.00;98828.71;1711917;81;21072;-73
2022/03/04 08:42:14;;;;;;;8.20;5.53;;;;;;;9.63;100.00;98821.20;1728696;81;21128;-63
2022/03/04 08:44:42;;;;;;;7.65;5.87;;;;;;;9.60;100.00;98826.31;1712491;81;20952;-65
2022/03/04 08:47:09;;;;;;;8.05;5.97;;;;;;;9.55;100.00;98835.78;1704309;81;21059;-63
2022/03/04 08:49:37;;;;;;;7.22;5.70;;;;;;;9.10;100.00;98843.14;1719831;81;20967;-64
2022/03/04 08:52:06;;;;;;;6.90;5.20;;;;;;;9.19;100.00;98841.08;1710173;81;21082;-62
2022/03/04 08:54:34;;;;;;;7.20;5.75;;;;;;;9.55;100.00;98844.88;1727617;81;21886;-64
2022/03/04 08:57:01;;;;;;;8.35;6.60;;;;;;;9.57;100.00;98838.95;1714090;81;20971;-61
2022/03/04 08:59:29;;;;;;;8.18;5.92;;;;;;;9.64;100.00;98843.60;1714511;81;21086;-61
2022/03/04 09:01:57;;;;;;;7.08;5.55;;;;;;;9.46;100.00;98840.41;1711133;81;20998;-63
2022/03/04 09:04:25;;;;;;;8.20;6.10;;;;;;;9.83;100.00;98834.84;1708596;81;21112;-62
2022/03/04 09:06:52;;;;;;;7.20;5.58;;;;;;;9.90;100.00;98842.09;1715632;81;21054;-72
2022/03/04 09:09:20;;;;;;;8.63;5.92;;;;;;;9.96;100.00;98851.67;1696630;81;22194;-62
2022/03/04 09:11:47;;;;;;;6.37;5.45;;;;;;;9.85;100.00;98846.33;1724987;81;20996;-62
2022/03/04 09:14:16;;;;;;;6.83;5.40;;;;;;;9.62;100.00;98849.51;1722810;81;21109;-62
2022/03/04 09:16:44;;;;;;;7.55;5.35;;;;;;;9.74;100.00;98853.84;1714299;81;21110;-63
2022/03/04 09:19:11;;;;;;;6.85;5.30;;;;;;;9.71;100.00;98857.36;1710568;81;21134;-61
2022/03/04 09:21:38;;;;;;;6.22;4.78;;;;;;;9.99;100.00;98853.03;1706271;81;21055;-62
2022/03/04 09:24:07;;;;;;;5.83;4.10;;;;;;;9.97;100.00;98857.16;1720560;82;20985;-68
2022/03/04 09:26:34;;;;;;;6.33;4.67;;;;;;;10.06;99.60;98855.08;1717694;82;21751;-67
2022/03/04 09:29:03;;;;;;;6.03;4.83;;;;;;;10.06;99.92;98859.48;1702526;82;21347;-63
2022/03/04 09:31:32;;;;;;;6.28;4.87;;;;;;;10.27;96.46;98858.34;1762237;80;21963;-63
2022/03/04 09:33:59;;;;;;;6.25;4.25;;;;;;;10.37;94.30;98858.63;1758962;80;21149;-61
2022/03/04 09:36:26;;;;;;;6.78;4.65;;;;;;;10.31;93.42;98855.09;1764520;79;21066;-67
2022/03/04 09:38:54;;;;;;;7.20;4.58;;;;;;;10.14;94.65;98855.30;1734508;80;21121;-62
2022/03/04 09:41:22;;;;;;;5.15;3.75;;;;;;;10.10;95.36;98861.95;1775255;79;20953;-60
2022/03/04 09:43:51;;;;;;;5.87;3.83;;;;;;;10.13;95.46;98852.42;1740368;79;21283;-63
2022/03/04 09:46:21;;;;;;;5.85;4.00;;;;;;;10.28;94.78;98856.02;1757904;79;20936;-67
2022/03/04 09:48:50;;;;;;;5.47;3.90;;;;;;;10.28;93.95;98856.81;1770539;79;20990;-63
2022/03/04 09:51:19;;;;;;;5.42;3.85;;;;;;;10.29;93.56;98851.09;1764916;79;21156;-61
2022/03/04 09:53:46;;;;;;;5.28;3.65;;;;;;;10.23;94.29;98852.73;1763067;79;21167;-61
2022/03/04 09:56:14;;;;;;;6.20;3.72;;;;;;;10.27;94.07;98848.72;1763744;79;21238;-67
2022/03/04 09:58:42;;;;;;;5.83;3.50;;;;;;;10.30;95.28;98842.27;1764893;80;20995;-60
2022/03/04 10:01:12;;;;;;;5.00;3.55;;;;;;;10.32;95.87;98841.55;1762677;79;21007;-60
2022/03/04 10:03:45;;;;;;;5.42;3.80;;;;;;;10.41;95.17;98850.16;1763419;79;21008;-60
2022/03/04 10:06:13;;;;;;;5.03;3.52;;;;;;;10.39;95.31;98846.19;1692279;82;21146;-66
2022/03/04 10:08:52;;;;;;;5.45;3.67;;;;;;;10.52;93.00;98850.45;1706549;81;21236;-60
2022/03/04 10:11:30;;;;;;;5.30;3.77;;;;;;;10.60;91.16;98847.05;1701821;82;21001;-61
2022/03/04 10:14:08;;;;;;;4.70;3.10;;;;;;;10.46;91.32;98845.11;1715104;81;21252;-67
2022/03/04 10:16:40;;;;;;;5.80;3.58;;;;;;;10.41;93.95;98845.45;1728033;80;21141;-64
2022/03/04 10:19:15;;;;;;;6.03;3.65;;;;;;;10.49;94.79;98847.77;1709006;81;21011;-62
2022/03/04 10:21:57;;;;;;;4.72;3.33;;;;;;;10.50;95.06;98836.36;1731416;82;21516;-67
2022/03/04 10:24:32;;;;;;;5.37;3.30;;;;;;;10.46;94.95;98828.18;1702467;83;21013;-62
2022/03/04 10:27:04;;;;;;;4.85;3.02;;;;;;;10.59;94.29;98826.44;1708992;83;20995;-60
2022/03/04 10:29:34;;;;;;;4.78;3.15;;;;;;;10.73;91.79;98827.87;1728911;82;21018;-69
2022/03/04 10:32:20;;;;;;;4.85;2.87;;;;;;;10.69;92.30;98837.15;1705024;81;21185;-63
2022/03/04 10:34:54;;;;;;;5.67;2.95;;;;;;;10.54;90.59;98833.61;1727480;82;22029;-60
2022/03/04 10:37:41;;;;;;;4.50;2.77;;;;;;;10.55;89.20;98830.48;1709163;81;21066;-62
2022/03/04 10:40:16;;;;;;;4.30;2.83;;;;;;;10.48;89.49;98833.95;1719369;82;20990;-61
2022/03/04 10:42:58;;;;;;;5.15;2.92;;;;;;;10.38;89.37;98842.80;1701061;81;21059;-67
2022/03/04 10:45:30;;;;;;;;;;;;;;;10.29;90.58;98847.98;1733186;81;20983;-62
2022/03/04 10:48:17;;;;;;;4.85;2.87;;;;;;;10.24;92.16;98841.30;1704561;82;21237;-62
2022/03/04 10:50:52;;;;;;;4.53;3.00;;;;;;;10.27;89.96;98844.81;1713637;81;22479;-61
2022/03/04 10:53:30;;;;;;;3.98;2.52;;;;;;;9.95;92.20;98850.56;1735043;82;21054;-60
2022/03/04 10:56:07;;;;;;;4.17;2.72;;;;;;;10.25;92.30;98858.54;1709646;81;21422;-72
2022/03/04 10:58:36;;;;;;;4.87;3.02;;;;;;;10.19;92.77;98847.16;1731137;82;21077;-62
2022/03/04 11:01:12;;;;;;;4.50;3.02;;;;;;;10.17;93.20;98861.39;1729217;80;21137;-63
2022/03/04 11:03:41;;;;;;;4.05;2.58;;;;;;;10.27;90.59;98856.53;1706421;81;21031;-65
2022/03/04 11:06:15;;;;;;;4.12;2.55;;;;;;;10.23;90.48;98847.53;1695378;82;22608;-62
2022/03/04 11:08:44;;;;;;;6.05;4.08;;;;;;;10.26;90.44;98849.70;1746084;79;20999;-65
2022/03/04 11:11:12;;;;;;;3.85;2.50;;;;;;;10.18;90.81;98850.75;1744613;81;21039;-62
2022/03/04 11:13:42;;;;;;;4.22;2.70;;;;;;;10.14;90.45;98855.30;1751925;79;21070;-69
2022/03/04 11:16:09;;;;;;;6.37;3.17;;;;;;;10.34;88.00;98857.27;1745043;79;21548;-60
2022/03/04 11:18:37;;;;;;;4.45;2.67;;;;;;;10.45;86.21;98856.55;1754853;79;21564;-61
2022/03/04 11:21:07;;;;;;;4.22;2.25;;;;;;;10.15;88.26;98849.08;1753691;79;20940;-61
2022/03/04 11:23:36;;;;;;;4.85;2.52;;;;;;;10.16;89.99;98862.41;1758296;79;21556;-69
2022/03/04 11:26:07;;;;;;;3.87;2.60;;;;;;;10.10;92.30;98861.44;1748955;79;21766;-61
2022/03/04 11:28:45;;;;;;;5.10;2.80;;;;;;;10.25;91.37;98866.35;1746140;79;21086;-62
2022/03/04 11:31:13;;;;;;;5.05;3.05;;;;;;;10.08;94.34;98865.30;1757331;79;21560;-60
2022/03/04 11:33:49;;;;;;;3.45;2.10;;;;;;;10.06;96.81;98867.30;1738931;79;20925;-66
2022/03/04 11:36:25;;;;;;;3.42;2.10;;;;;;;10.54;90.88;98866.69;1759913;79;21050;-62
2022/03/04 11:38:56;;;;;;;4.72;2.42;;;;;;;10.23;90.33;98873.56;1751502;79;21955;-60